LHPP/PEV METAR and TAF weather

Enter ICAO airport designator
Station Type Date Time Source
LHPP METAR 2019/12/08 13:45 UTC NOAA

LHPP 081345Z 15003KT 0200 FG OVC005 04/04 Q1017


Station Type Date Time Source
LHPP Decoded METAR 2019/12/08 13:45 UTC NOAA

Pecs / Pogany, Hungary (LHPP) 46-06N 018-14E 203M
Dec 08, 2019 - 08:45 AM EST / 2019.12.08 1345 UTC
Wind: from the SSE (150 degrees) at 3 MPH (3 KT):0
Visibility: less than 1 mile:0
Sky conditions: overcast
Weather: fog
Temperature: 39 F (4 C)
Dew Point: 39 F (4 C)
Relative Humidity: 100%
Pressure (altimeter): 30.03 in. Hg (1017 hPa)
ob: LHPP 081345Z 15003KT 0200 FG OVC005 04/04 Q1017
cycle: 14

Station Type Date Time Source
LHPP TAF 2017/08/21 15:50 UTC NOAA

TAF LHPP 211700Z 2115/2214 CNL

Example: see airport list